Terminal Aerodrome Forecast
Issued by NWS

Home | Current Version | Previous Version | Text Only | Print | Product List | Glossary On
Versions: 1 2 3 4 5 6 7 8 9 10 11 12 13 14 15 16 17 18 19 20 21 22 23 24 25 26 27 28 29 30 31
000
FTUS41 KOKX 231900 AAA
TAFHPN
TAF AMD
KHPN 231907Z 2319/2418 33016G25KT P6SM VCSH BKN016 BKN025
      TEMPO 2319/2323 FEW016 SCT025 OVC035
     FM232300 33014G25KT P6SM BKN035 BKN080
     FM240400 33014KT P6SM BKN040 BKN100
     FM241400 32014G21KT P6SM BKN040
      AMD NOT SKED=

USA.gov is the U.S. government's official web portal to all federal, state and local government web resources and services.